createdAt,value
2023-03-19T00:00:44.363Z,4.73
2023-03-19T00:05:53.268Z,4.10
2023-03-19T00:10:55.041Z,7.03
2023-03-19T00:15:57.107Z,3.70
2023-03-19T00:20:59.206Z,3.20
2023-03-19T00:26:00.755Z,3.10
2023-03-19T00:31:16.617Z,3.57
2023-03-19T00:36:18.432Z,5.13
2023-03-19T00:41:21.032Z,5.77
2023-03-19T00:46:23.916Z,5.00
2023-03-19T00:51:25.688Z,5.73
2023-03-19T00:56:27.244Z,4.43
2023-03-19T01:01:29.336Z,5.93
2023-03-19T01:06:31.242Z,4.80
2023-03-19T01:11:32.935Z,4.57
2023-03-19T01:16:34.784Z,4.30
2023-03-19T01:21:36.706Z,4.47
2023-03-19T01:26:38.719Z,5.53
2023-03-19T01:32:03.545Z,4.23
2023-03-19T01:37:28.332Z,4.33
2023-03-19T01:42:29.936Z,2.87
2023-03-19T01:47:45.819Z,4.17
2023-03-19T01:52:47.388Z,4.47
2023-03-19T01:57:57.421Z,3.20
2023-03-19T02:03:28.474Z,1.87
2023-03-19T02:08:45.667Z,3.00
2023-03-19T02:13:48.412Z,4.20
2023-03-19T02:18:50.661Z,3.87
2023-03-19T02:24:20.490Z,3.60
2023-03-19T02:29:38.851Z,4.10
2023-03-19T02:34:43.603Z,2.93
2023-03-19T02:40:07.811Z,4.03
2023-03-19T02:45:10.044Z,2.73
2023-03-19T02:50:12.105Z,2.53
2023-03-19T02:55:13.777Z,1.50
2023-03-19T03:00:20.781Z,2.23
2023-03-19T03:05:22.481Z,1.57
2023-03-19T03:10:24.034Z,1.67
2023-03-19T03:15:25.711Z,2.43
2023-03-19T03:20:27.818Z,1.63
2023-03-19T03:25:30.688Z,1.87
2023-03-19T03:31:01.061Z,1.60
2023-03-19T03:36:27.965Z,1.53
2023-03-19T03:41:29.936Z,1.53
2023-03-19T03:46:32.817Z,2.03
2023-03-19T03:51:34.857Z,1.20
2023-03-19T03:56:37.314Z,1.50
2023-03-19T04:01:38.935Z,3.13
2023-03-19T04:06:40.742Z,1.57
2023-03-19T04:11:56.557Z,1.47
2023-03-19T04:16:58.447Z,1.90
2023-03-19T04:22:00.403Z,1.47
2023-03-19T04:27:02.482Z,3.33
2023-03-19T04:32:04.780Z,3.20
2023-03-19T04:37:06.460Z,1.50
2023-03-19T04:42:12.478Z,1.83
2023-03-19T04:47:26.582Z,1.40
2023-03-19T04:52:31.917Z,3.13
2023-03-19T04:57:33.951Z,1.60
2023-03-19T05:02:37.593Z,1.10
2023-03-19T05:07:42.183Z,1.10
2023-03-19T05:12:45.222Z,1.50
2023-03-19T05:17:46.945Z,0.90
2023-03-19T05:22:53.487Z,2.33
2023-03-19T05:27:58.825Z,1.00
2023-03-19T05:33:01.404Z,1.00
2023-03-19T05:38:11.963Z,1.30
2023-03-19T05:43:16.297Z,2.43
2023-03-19T05:48:18.756Z,0.97
2023-03-19T05:53:23.048Z,1.30
2023-03-19T05:58:50.996Z,1.43
2023-03-19T06:03:57.516Z,2.40
2023-03-19T06:08:59.503Z,1.20
2023-03-19T06:14:14.337Z,1.50
2023-03-19T06:19:22.061Z,1.10
2023-03-19T06:24:23.775Z,1.37
2023-03-19T06:29:27.411Z,1.20
2023-03-19T06:34:36.989Z,1.27
2023-03-19T06:39:39.444Z,1.30
2023-03-19T06:44:40.951Z,1.30
2023-03-19T06:49:42.603Z,1.40
2023-03-19T06:54:44.411Z,1.93
2023-03-19T06:59:46.367Z,1.33
2023-03-19T07:04:47.965Z,1.47
2023-03-19T07:09:49.645Z,1.00
2023-03-19T07:14:51.695Z,1.17
2023-03-19T07:19:53.638Z,1.47
2023-03-19T07:24:55.879Z,2.13
2023-03-19T07:29:58.234Z,2.60
2023-03-19T07:35:00.100Z,1.40
2023-03-19T07:40:01.672Z,1.33
2023-03-19T07:45:04.856Z,1.10
2023-03-19T07:50:07.311Z,2.13
2023-03-19T07:55:09.355Z,1.20
2023-03-19T08:00:11.564Z,1.10
2023-03-19T08:05:18.156Z,2.70
2023-03-19T08:10:19.728Z,1.93
2023-03-19T08:15:21.826Z,1.70
2023-03-19T08:20:23.535Z,1.50
2023-03-19T08:25:26.976Z,2.70
2023-03-19T08:30:29.168Z,1.57
2023-03-19T08:35:31.041Z,1.90
2023-03-19T08:40:33.014Z,1.97
2023-03-19T08:45:34.803Z,1.90
2023-03-19T08:50:36.803Z,3.10
2023-03-19T08:55:38.540Z,2.00
2023-03-19T09:00:40.227Z,3.13
2023-03-19T09:05:41.811Z,2.63
2023-03-19T09:10:43.460Z,2.60
2023-03-19T09:15:45.195Z,2.47
2023-03-19T09:20:47.845Z,1.63
2023-03-19T09:25:51.615Z,2.20
2023-03-19T09:30:53.561Z,2.07
2023-03-19T09:35:55.368Z,2.03
2023-03-19T09:41:10.863Z,1.90
2023-03-19T09:46:18.726Z,1.80
2023-03-19T09:51:26.160Z,2.30
2023-03-19T09:56:28.044Z,1.73
2023-03-19T10:01:37.491Z,1.57
2023-03-19T10:06:42.204Z,1.93
2023-03-19T10:12:25.170Z,2.57
2023-03-19T10:17:34.750Z,2.40
2023-03-19T10:22:41.903Z,2.03
2023-03-19T10:27:45.873Z,2.47
2023-03-19T10:33:04.025Z,2.60
2023-03-19T10:38:23.504Z,2.00
2023-03-19T10:43:26.145Z,2.90
2023-03-19T10:48:28.322Z,2.40
2023-03-19T10:53:35.005Z,3.13
2023-03-19T10:58:37.507Z,2.40
2023-03-19T11:03:42.448Z,2.20
2023-03-19T11:08:58.484Z,4.30
2023-03-19T11:14:08.067Z,2.10
2023-03-19T11:19:20.242Z,2.00
2023-03-19T11:24:21.755Z,3.43
2023-03-19T11:29:23.432Z,2.37
2023-03-19T11:34:34.068Z,2.40
2023-03-19T11:39:45.724Z,2.70
2023-03-19T11:44:59.431Z,2.10
2023-03-19T11:50:20.253Z,3.13
2023-03-19T11:55:33.149Z,2.80
2023-03-19T12:00:53.893Z,2.63
2023-03-19T12:06:18.084Z,2.63
2023-03-19T12:11:43.209Z,3.47
2023-03-19T12:17:19.298Z,3.67
2023-03-19T12:22:42.259Z,2.17
2023-03-19T12:28:18.965Z,2.43
2023-03-19T12:33:30.423Z,3.60
2023-03-19T12:38:39.070Z,2.43
2023-03-19T12:43:40.539Z,2.30
2023-03-19T12:49:01.301Z,2.97
2023-03-19T12:54:04.229Z,1.90
2023-03-19T12:59:16.171Z,3.10
2023-03-19T13:04:22.277Z,1.60
2023-03-19T13:09:35.442Z,1.77
2023-03-19T13:15:02.433Z,1.40
2023-03-19T13:20:30.915Z,1.17
2023-03-19T13:25:35.376Z,1.00
2023-03-19T13:30:42.410Z,1.20
2023-03-19T13:35:46.534Z,0.90
2023-03-19T13:40:53.649Z,1.30
2023-03-19T13:46:14.546Z,1.00
2023-03-19T13:51:17.822Z,0.80
2023-03-19T13:56:29.504Z,1.23
2023-03-19T14:01:37.276Z,0.90
2023-03-19T14:06:41.534Z,1.40
2023-03-19T14:11:43.200Z,1.10
2023-03-19T14:16:46.567Z,1.40
2023-03-19T14:21:59.773Z,1.70
2023-03-19T14:27:03.712Z,1.47
2023-03-19T14:32:09.870Z,1.60
2023-03-19T14:37:25.016Z,0.90
2023-03-19T14:42:32.522Z,0.87
2023-03-19T14:47:39.103Z,1.40
2023-03-19T14:52:46.993Z,1.30
2023-03-19T14:57:51.816Z,0.97
2023-03-19T15:02:53.803Z,0.87
2023-03-19T15:08:00.523Z,0.93
2023-03-19T15:13:14.081Z,0.97
2023-03-19T15:18:16.290Z,1.27
2023-03-19T15:23:26.790Z,1.00
2023-03-19T15:28:38.463Z,1.00
2023-03-19T15:33:43.969Z,0.80
2023-03-19T15:38:55.374Z,0.77
2023-03-19T15:43:57.073Z,1.13
2023-03-19T15:49:03.743Z,1.10
2023-03-19T15:54:06.333Z,1.00
2023-03-19T15:59:08.018Z,1.17
2023-03-19T16:04:16.184Z,1.43
2023-03-19T16:09:29.967Z,1.13
2023-03-19T16:14:40.720Z,0.90
2023-03-19T16:19:54.319Z,1.00
2023-03-19T16:24:57.177Z,1.07
2023-03-19T16:30:00.023Z,1.20
2023-03-19T16:35:15.453Z,1.07
2023-03-19T16:40:17.256Z,1.77
2023-03-19T16:45:20.135Z,2.33
2023-03-19T16:50:24.324Z,1.50
2023-03-19T16:55:34.608Z,0.80
2023-03-19T17:00:36.555Z,2.50
2023-03-19T17:05:38.258Z,1.97
2023-03-19T17:10:49.166Z,2.17
2023-03-19T17:15:51.436Z,1.83
2023-03-19T17:20:56.881Z,1.80
2023-03-19T17:25:59.168Z,2.40
2023-03-19T17:31:01.838Z,2.87
2023-03-19T17:36:03.920Z,2.33
2023-03-19T17:41:16.821Z,2.43
2023-03-19T17:46:21.331Z,2.90
2023-03-19T17:51:23.853Z,2.83
2023-03-19T17:56:26.038Z,2.40
2023-03-19T18:01:28.427Z,2.60
2023-03-19T18:06:34.829Z,2.87
2023-03-19T18:11:36.534Z,5.00
2023-03-19T18:16:38.855Z,2.90
2023-03-19T18:21:40.467Z,3.53
2023-03-19T18:26:42.014Z,3.30
2023-03-19T18:31:48.415Z,4.70
2023-03-19T18:36:50.230Z,4.90
2023-03-19T18:41:51.838Z,4.70
2023-03-19T18:46:54.263Z,4.70
2023-03-19T18:52:02.935Z,4.37
2023-03-19T18:57:05.737Z,4.97
2023-03-19T19:02:32.883Z,4.40
2023-03-19T19:07:34.527Z,4.90
2023-03-19T19:12:38.805Z,4.67
2023-03-19T19:17:41.847Z,4.57
2023-03-19T19:22:43.752Z,4.37
2023-03-19T19:27:47.376Z,4.60
2023-03-19T19:32:49.008Z,5.13
2023-03-19T19:37:50.874Z,6.67
2023-03-19T19:42:53.381Z,5.30
2023-03-19T19:47:56.728Z,5.27
2023-03-19T19:52:59.303Z,5.10
2023-03-19T19:58:01.518Z,5.70
2023-03-19T20:03:03.294Z,5.87
2023-03-19T20:08:05.217Z,5.67
2023-03-19T20:13:06.786Z,6.93
2023-03-19T20:18:11.684Z,5.57
2023-03-19T20:23:16.191Z,5.03
2023-03-19T20:28:27.574Z,6.03
2023-03-19T20:33:31.394Z,5.20
2023-03-19T20:38:36.603Z,5.67
2023-03-19T20:43:38.346Z,5.83
2023-03-19T20:48:39.868Z,6.33
2023-03-19T20:53:41.552Z,5.80
2023-03-19T20:58:44.051Z,6.37
2023-03-19T21:03:45.771Z,5.57
2023-03-19T21:08:58.764Z,5.77
2023-03-19T21:14:01.478Z,7.73
2023-03-19T21:19:03.045Z,6.17
2023-03-19T21:24:14.259Z,6.07
2023-03-19T21:29:21.822Z,7.10
2023-03-19T21:34:24.207Z,5.83
2023-03-19T21:39:25.744Z,7.03
2023-03-19T21:44:30.203Z,9.67
2023-03-19T21:49:31.716Z,12.47
2023-03-19T21:54:34.197Z,17.03
2023-03-19T21:59:35.902Z,15.67
2023-03-19T22:04:37.757Z,16.80
2023-03-19T22:09:40.056Z,16.77
2023-03-19T22:14:41.664Z,17.13
2023-03-19T22:19:43.231Z,19.50
2023-03-19T22:24:46.020Z,18.33
2023-03-19T22:29:49.906Z,23.00
2023-03-19T22:34:57.198Z,22.57
2023-03-19T22:39:59.017Z,21.40
2023-03-19T22:45:00.813Z,24.47
2023-03-19T22:50:02.954Z,21.80
2023-03-19T22:55:04.970Z,23.93
2023-03-19T23:00:14.203Z,21.83
2023-03-19T23:05:31.132Z,26.17
2023-03-19T23:10:32.918Z,20.30
2023-03-19T23:15:35.129Z,19.90
2023-03-19T23:20:37.040Z,21.87
2023-03-19T23:25:38.653Z,21.17
2023-03-19T23:30:41.424Z,18.23
2023-03-19T23:35:43.720Z,20.43
2023-03-19T23:40:54.859Z,16.73
2023-03-19T23:45:56.735Z,19.30
2023-03-19T23:50:58.362Z,16.33
2023-03-19T23:56:05.353Z,20.90
